createdAt,value
2023-01-08T00:01:09.347Z,100.00
2023-01-08T00:03:36.932Z,100.00
2023-01-08T00:06:09.479Z,100.00
2023-01-08T00:08:35.987Z,100.00
2023-01-08T00:11:02.535Z,100.00
2023-01-08T00:13:31.340Z,100.00
2023-01-08T00:16:03.093Z,100.00
2023-01-08T00:18:29.516Z,100.00
2023-01-08T00:20:56.146Z,100.00
2023-01-08T00:23:23.088Z,100.00
2023-01-08T00:25:49.910Z,100.00
2023-01-08T00:28:17.008Z,100.00
2023-01-08T00:30:43.713Z,100.00
2023-01-08T00:33:10.478Z,100.00
2023-01-08T00:35:41.105Z,100.00
2023-01-08T00:38:07.762Z,100.00
2023-01-08T00:40:35.776Z,100.00
2023-01-08T00:43:03.355Z,100.00
2023-01-08T00:45:32.872Z,100.00
2023-01-08T00:47:59.804Z,100.00
2023-01-08T00:50:26.562Z,100.00
2023-01-08T00:52:53.113Z,100.00
2023-01-08T00:55:19.917Z,100.00
2023-01-08T00:57:46.417Z,100.00
2023-01-08T01:00:15.047Z,100.00
2023-01-08T01:02:41.811Z,100.00
2023-01-08T01:05:10.678Z,100.00
2023-01-08T01:07:40.884Z,100.00
2023-01-08T01:10:08.910Z,100.00
2023-01-08T01:12:38.863Z,100.00
2023-01-08T01:15:14.483Z,100.00
2023-01-08T01:17:43.832Z,100.00
2023-01-08T01:20:13.651Z,100.00
2023-01-08T01:22:42.902Z,100.00
2023-01-08T01:25:10.143Z,100.00
2023-01-08T01:27:36.992Z,100.00
2023-01-08T01:30:05.200Z,100.00
2023-01-08T01:32:31.648Z,100.00
2023-01-08T01:34:58.059Z,100.00
2023-01-08T01:37:24.527Z,100.00
2023-01-08T01:39:51.014Z,100.00
2023-01-08T01:42:37.596Z,100.00
2023-01-08T01:45:18.527Z,100.00
2023-01-08T01:47:51.361Z,100.00
2023-01-08T01:50:23.338Z,100.00
2023-01-08T01:52:54.926Z,100.00
2023-01-08T01:55:21.378Z,100.00
2023-01-08T01:58:04.750Z,100.00
2023-01-08T02:00:34.028Z,100.00
2023-01-08T02:03:01.018Z,100.00
2023-01-08T02:05:38.406Z,100.00
2023-01-08T02:08:12.290Z,100.00
2023-01-08T02:10:51.626Z,100.00
2023-01-08T02:13:25.723Z,100.00
2023-01-08T02:16:06.005Z,100.00
2023-01-08T02:18:44.071Z,100.00
2023-01-08T02:21:14.669Z,100.00
2023-01-08T02:24:03.119Z,100.00
2023-01-08T02:26:34.516Z,100.00
2023-01-08T02:29:04.080Z,100.00
2023-01-08T02:31:32.206Z,100.00
2023-01-08T02:33:59.440Z,100.00
2023-01-08T02:36:43.679Z,100.00
2023-01-08T02:39:44.712Z,100.00
2023-01-08T02:42:21.441Z,100.00
2023-01-08T02:44:54.408Z,100.00
2023-01-08T02:47:29.568Z,100.00
2023-01-08T02:50:10.807Z,100.00
2023-01-08T02:52:50.192Z,100.00
2023-01-08T02:55:19.484Z,100.00
2023-01-08T02:57:46.851Z,100.00
2023-01-08T03:00:14.367Z,100.00
2023-01-08T03:02:42.745Z,100.00
2023-01-08T03:05:24.989Z,100.00
2023-01-08T03:07:51.723Z,100.00
2023-01-08T03:10:22.616Z,100.00
2023-01-08T03:12:54.202Z,100.00
2023-01-08T03:15:27.283Z,100.00
2023-01-08T03:17:59.064Z,100.00
2023-01-08T03:20:25.781Z,100.00
2023-01-08T03:22:57.184Z,100.00
2023-01-08T03:25:26.504Z,100.00
2023-01-08T03:27:58.709Z,100.00
2023-01-08T03:30:25.749Z,100.00
2023-01-08T03:32:55.771Z,100.00
2023-01-08T03:35:24.799Z,100.00
2023-01-08T03:37:57.933Z,100.00
2023-01-08T03:40:34.833Z,100.00
2023-01-08T03:43:01.471Z,100.00
2023-01-08T03:45:30.421Z,100.00
2023-01-08T03:47:58.238Z,100.00
2023-01-08T03:50:28.209Z,100.00
2023-01-08T03:52:55.089Z,100.00
2023-01-08T03:55:21.595Z,100.00
2023-01-08T03:57:48.240Z,100.00
2023-01-08T04:00:15.394Z,100.00
2023-01-08T04:02:44.564Z,100.00
2023-01-08T04:05:11.207Z,100.00
2023-01-08T04:07:38.515Z,100.00
2023-01-08T04:10:06.008Z,100.00
2023-01-08T04:12:32.473Z,100.00
2023-01-08T04:14:58.934Z,100.00
2023-01-08T04:17:25.549Z,100.00
2023-01-08T04:19:52.049Z,100.00
2023-01-08T04:22:18.541Z,100.00
2023-01-08T04:24:44.976Z,100.00
2023-01-08T04:27:11.469Z,100.00
2023-01-08T04:29:37.977Z,100.00
2023-01-08T04:32:04.655Z,100.00
2023-01-08T04:34:31.143Z,100.00
2023-01-08T04:36:57.626Z,100.00
2023-01-08T04:39:24.040Z,100.00
2023-01-08T04:41:50.658Z,100.00
2023-01-08T04:44:17.105Z,100.00
2023-01-08T04:46:43.659Z,100.00
2023-01-08T04:49:11.413Z,100.00
2023-01-08T04:51:37.944Z,100.00
2023-01-08T04:54:04.548Z,100.00
2023-01-08T04:56:31.398Z,100.00
2023-01-08T04:58:58.794Z,100.00
2023-01-08T05:01:27.342Z,100.00
2023-01-08T05:03:59.676Z,100.00
2023-01-08T05:06:28.111Z,100.00
2023-01-08T05:08:54.681Z,100.00
2023-01-08T05:11:21.790Z,100.00
2023-01-08T05:13:49.726Z,100.00
2023-01-08T05:16:16.970Z,100.00
2023-01-08T05:18:44.853Z,100.00
2023-01-08T05:21:13.249Z,100.00
2023-01-08T05:23:39.981Z,100.00
2023-01-08T05:26:07.265Z,100.00
2023-01-08T05:28:34.485Z,100.00
2023-01-08T05:31:00.981Z,100.00
2023-01-08T05:33:27.701Z,100.00
2023-01-08T05:35:54.407Z,100.00
2023-01-08T05:38:20.960Z,100.00
2023-01-08T05:40:47.435Z,100.00
2023-01-08T05:43:13.984Z,100.00
2023-01-08T05:45:40.494Z,100.00
2023-01-08T05:48:07.669Z,100.00
2023-01-08T05:50:35.200Z,100.00
2023-01-08T05:53:02.148Z,100.00
2023-01-08T05:55:28.597Z,100.00
2023-01-08T05:57:55.173Z,100.00
2023-01-08T06:00:21.813Z,100.00
2023-01-08T06:02:48.631Z,100.00
2023-01-08T06:05:15.655Z,100.00
2023-01-08T06:07:42.179Z,100.00
2023-01-08T06:10:09.411Z,100.00
2023-01-08T06:12:36.328Z,100.00
2023-01-08T06:15:04.034Z,100.00
2023-01-08T06:17:30.691Z,100.00
2023-01-08T06:19:59.950Z,100.00
2023-01-08T06:22:27.376Z,100.00
2023-01-08T06:24:54.014Z,100.00
2023-01-08T06:27:20.423Z,100.00
2023-01-08T06:29:46.898Z,100.00
2023-01-08T06:32:13.372Z,100.00
2023-01-08T06:34:39.825Z,100.00
2023-01-08T06:37:06.333Z,100.00
2023-01-08T06:39:32.910Z,100.00
2023-01-08T06:41:59.473Z,100.00
2023-01-08T06:44:26.053Z,100.00
2023-01-08T06:46:52.648Z,100.00
2023-01-08T06:49:19.879Z,100.00
2023-01-08T06:51:46.465Z,100.00
2023-01-08T06:54:14.202Z,100.00
2023-01-08T06:56:52.838Z,100.00
2023-01-08T06:59:20.467Z,100.00
2023-01-08T07:01:47.044Z,100.00
2023-01-08T07:04:13.645Z,100.00
2023-01-08T07:06:40.105Z,100.00
2023-01-08T07:09:06.590Z,100.00
2023-01-08T07:11:33.848Z,100.00
2023-01-08T07:14:00.313Z,100.00
2023-01-08T07:16:26.922Z,100.00
2023-01-08T07:18:53.507Z,100.00
2023-01-08T07:21:21.880Z,100.00
2023-01-08T07:23:49.652Z,100.00
2023-01-08T07:26:18.916Z,100.00
2023-01-08T07:28:45.593Z,100.00
2023-01-08T07:31:12.114Z,100.00
2023-01-08T07:33:38.645Z,100.00
2023-01-08T07:36:05.757Z,100.00
2023-01-08T07:38:32.254Z,100.00
2023-01-08T07:40:59.119Z,100.00
2023-01-08T07:43:26.253Z,100.00
2023-01-08T07:45:52.724Z,100.00
2023-01-08T07:48:19.155Z,100.00
2023-01-08T07:50:48.597Z,100.00
2023-01-08T07:53:17.161Z,100.00
2023-01-08T07:55:43.768Z,100.00
2023-01-08T07:58:14.656Z,100.00
2023-01-08T08:00:41.464Z,100.00
2023-01-08T08:03:11.619Z,100.00
2023-01-08T08:05:38.292Z,100.00
2023-01-08T08:08:09.524Z,100.00
2023-01-08T08:10:36.830Z,100.00
2023-01-08T08:13:03.594Z,100.00
2023-01-08T08:15:30.030Z,100.00
2023-01-08T08:17:56.569Z,100.00
2023-01-08T08:20:23.050Z,100.00
2023-01-08T08:22:49.600Z,100.00
2023-01-08T08:25:16.308Z,100.00
2023-01-08T08:27:43.903Z,100.00
2023-01-08T08:30:12.021Z,100.00
2023-01-08T08:32:38.694Z,100.00
2023-01-08T08:35:05.873Z,100.00
2023-01-08T08:37:32.480Z,100.00
2023-01-08T08:39:58.872Z,100.00
2023-01-08T08:42:26.446Z,100.00
2023-01-08T08:44:52.880Z,100.00
2023-01-08T08:47:19.331Z,100.00
2023-01-08T08:49:45.773Z,100.00
2023-01-08T08:52:12.196Z,100.00
2023-01-08T08:54:41.426Z,100.00
2023-01-08T08:57:10.938Z,100.00
2023-01-08T08:59:38.028Z,100.00
2023-01-08T09:02:05.283Z,100.00
2023-01-08T09:04:33.476Z,100.00
2023-01-08T09:07:00.441Z,100.00
2023-01-08T09:09:27.416Z,100.00
2023-01-08T09:11:54.469Z,100.00
2023-01-08T09:14:21.518Z,100.00
2023-01-08T09:16:48.204Z,100.00
2023-01-08T09:19:14.829Z,100.00
2023-01-08T09:21:41.396Z,100.00
2023-01-08T09:24:08.389Z,100.00
2023-01-08T09:26:35.046Z,100.00
2023-01-08T09:29:01.582Z,100.00
2023-01-08T09:31:28.117Z,99.98
2023-01-08T09:33:54.736Z,100.00
2023-01-08T09:36:21.197Z,99.81
2023-01-08T09:38:47.600Z,99.36
2023-01-08T09:41:21.505Z,99.44
2023-01-08T09:43:51.561Z,98.94
2023-01-08T09:46:21.956Z,99.00
2023-01-08T09:48:49.969Z,98.96
2023-01-08T09:51:19.303Z,99.06
2023-01-08T09:53:55.069Z,98.83
2023-01-08T09:56:21.790Z,98.51
2023-01-08T09:58:54.168Z,98.62
2023-01-08T10:01:26.902Z,98.32
2023-01-08T10:04:19.620Z,98.53
2023-01-08T10:06:50.938Z,98.23
2023-01-08T10:09:21.313Z,98.41
2023-01-08T10:11:50.504Z,98.35
2023-01-08T10:14:23.366Z,98.52
2023-01-08T10:16:55.988Z,98.63
2023-01-08T10:19:23.292Z,98.69
2023-01-08T10:21:50.359Z,98.44
2023-01-08T10:24:17.129Z,98.03
2023-01-08T10:26:43.884Z,98.46
2023-01-08T10:29:18.752Z,98.00
2023-01-08T10:31:54.754Z,97.87
2023-01-08T10:34:53.462Z,97.63
2023-01-08T10:37:44.652Z,97.63
2023-01-08T10:40:25.362Z,97.16
2023-01-08T10:42:53.022Z,97.22
2023-01-08T10:45:25.855Z,96.96
2023-01-08T10:47:57.210Z,96.75
2023-01-08T10:50:30.810Z,96.19
2023-01-08T10:53:00.336Z,95.73
2023-01-08T10:55:37.522Z,95.68
2023-01-08T10:58:14.304Z,95.25
2023-01-08T11:00:41.181Z,95.09
2023-01-08T11:03:18.613Z,95.32
2023-01-08T11:05:45.945Z,95.11
2023-01-08T11:08:23.163Z,94.84
2023-01-08T11:10:55.913Z,94.18
2023-01-08T11:13:23.212Z,94.26
2023-01-08T11:16:13.174Z,93.94
2023-01-08T11:18:48.682Z,93.85
2023-01-08T11:21:26.987Z,93.85
2023-01-08T11:24:11.600Z,93.49
2023-01-08T11:26:41.361Z,93.32
2023-01-08T11:29:38.859Z,93.58
2023-01-08T11:32:15.109Z,93.04
2023-01-08T11:34:53.613Z,92.88
2023-01-08T11:37:27.363Z,92.78
2023-01-08T11:39:55.585Z,92.69
2023-01-08T11:42:52.825Z,92.79
2023-01-08T11:45:31.561Z,92.43
2023-01-08T11:48:08.736Z,92.50
2023-01-08T11:50:38.001Z,92.58
2023-01-08T11:53:24.684Z,92.13
2023-01-08T11:56:36.765Z,92.14
2023-01-08T11:59:09.205Z,91.56
2023-01-08T12:01:48.469Z,90.93
2023-01-08T12:04:23.993Z,90.81
2023-01-08T12:07:13.426Z,90.89
2023-01-08T12:09:46.315Z,89.78
2023-01-08T12:12:55.140Z,90.07
2023-01-08T12:15:41.263Z,89.65
2023-01-08T12:18:32.845Z,89.71
2023-01-08T12:21:25.319Z,89.25
2023-01-08T12:24:22.525Z,89.10
2023-01-08T12:27:05.907Z,89.13
2023-01-08T12:29:39.790Z,88.65
2023-01-08T12:32:30.661Z,88.64
2023-01-08T12:35:00.263Z,88.29
2023-01-08T12:37:33.934Z,88.33
2023-01-08T12:40:14.777Z,88.22
2023-01-08T12:42:47.307Z,87.71
2023-01-08T12:45:32.519Z,87.91
2023-01-08T12:48:11.343Z,87.43
2023-01-08T12:51:07.862Z,87.11
2023-01-08T12:53:49.738Z,86.98
2023-01-08T12:56:25.282Z,88.99
2023-01-08T12:59:04.917Z,87.58
2023-01-08T13:01:53.163Z,87.08
2023-01-08T13:04:20.234Z,86.52
2023-01-08T13:07:05.553Z,86.53
2023-01-08T13:09:32.979Z,85.83
2023-01-08T13:12:00.691Z,85.75
2023-01-08T13:14:27.741Z,85.78
2023-01-08T13:17:07.654Z,85.46
2023-01-08T13:19:42.178Z,85.34
2023-01-08T13:22:26.243Z,85.71
2023-01-08T13:25:07.525Z,84.91
2023-01-08T13:27:34.166Z,84.39
2023-01-08T13:30:01.942Z,84.74
2023-01-08T13:32:34.461Z,83.61
2023-01-08T13:35:21.937Z,83.31
2023-01-08T13:38:06.305Z,83.46
2023-01-08T13:40:44.896Z,83.06
2023-01-08T13:43:31.202Z,83.08
2023-01-08T13:46:00.726Z,82.89
2023-01-08T13:48:30.921Z,82.28
2023-01-08T13:50:57.566Z,82.24
2023-01-08T13:53:24.624Z,81.99
2023-01-08T13:56:06.350Z,82.57
2023-01-08T13:58:51.569Z,82.26
2023-01-08T14:01:18.841Z,82.48
2023-01-08T14:03:47.319Z,81.90
2023-01-08T14:06:23.123Z,82.02
2023-01-08T14:08:53.863Z,81.64
2023-01-08T14:11:24.081Z,81.10
2023-01-08T14:13:51.572Z,80.92
2023-01-08T14:16:18.113Z,80.86
2023-01-08T14:18:46.437Z,81.23
2023-01-08T14:21:14.828Z,81.39
2023-01-08T14:23:46.450Z,81.35
2023-01-08T14:26:35.963Z,81.78
2023-01-08T14:29:16.004Z,81.61
2023-01-08T14:31:53.074Z,81.16
2023-01-08T14:34:22.800Z,81.07
2023-01-08T14:36:51.634Z,81.44
2023-01-08T14:39:25.453Z,81.61
2023-01-08T14:42:14.203Z,81.75
2023-01-08T14:44:42.573Z,81.76
2023-01-08T14:47:19.569Z,81.58
2023-01-08T14:49:54.069Z,82.18
2023-01-08T14:52:21.248Z,82.04
2023-01-08T14:54:52.864Z,81.96
2023-01-08T14:57:19.889Z,82.30
2023-01-08T14:59:55.010Z,82.29
2023-01-08T15:02:27.925Z,82.13
2023-01-08T15:05:30.981Z,82.89
2023-01-08T15:08:24.970Z,82.68
2023-01-08T15:11:15.407Z,82.23
2023-01-08T15:13:42.128Z,81.33
2023-01-08T15:16:20.965Z,81.50
2023-01-08T15:18:54.931Z,81.55
2023-01-08T15:21:23.641Z,81.39
2023-01-08T15:23:54.677Z,81.78
2023-01-08T15:26:22.507Z,82.05
2023-01-08T15:28:54.092Z,81.95
2023-01-08T15:31:29.148Z,82.34
2023-01-08T15:33:56.637Z,81.99
2023-01-08T15:36:23.218Z,82.30
2023-01-08T15:38:50.265Z,82.38
2023-01-08T15:41:39.377Z,82.49
2023-01-08T15:44:06.191Z,82.61
2023-01-08T15:46:32.627Z,82.78
2023-01-08T15:48:59.139Z,83.01
2023-01-08T15:51:26.433Z,83.13
2023-01-08T15:53:53.188Z,83.56
2023-01-08T15:56:20.094Z,83.47
2023-01-08T15:58:46.542Z,83.92
2023-01-08T16:01:13.079Z,84.32
2023-01-08T16:03:39.572Z,84.36
2023-01-08T16:06:07.322Z,84.70
2023-01-08T16:08:33.834Z,85.10
2023-01-08T16:11:00.482Z,85.28
2023-01-08T16:13:27.155Z,85.19
2023-01-08T16:15:55.202Z,86.04
2023-01-08T16:18:21.670Z,85.86
2023-01-08T16:20:48.366Z,85.64
2023-01-08T16:23:14.807Z,85.83
2023-01-08T16:25:41.226Z,85.98
2023-01-08T16:28:07.735Z,86.46
2023-01-08T16:30:34.420Z,86.03
2023-01-08T16:33:01.062Z,86.50
2023-01-08T16:35:27.562Z,86.34
2023-01-08T16:37:54.008Z,86.59
2023-01-08T16:40:20.508Z,86.44
2023-01-08T16:42:46.986Z,87.52
2023-01-08T16:45:13.511Z,87.09
2023-01-08T16:47:40.099Z,87.03
2023-01-08T16:50:07.959Z,87.28
2023-01-08T16:52:34.459Z,87.36
2023-01-08T16:55:01.020Z,87.58
2023-01-08T16:57:27.601Z,87.68
2023-01-08T16:59:54.106Z,87.94
2023-01-08T17:02:20.539Z,88.02
2023-01-08T17:04:47.149Z,87.66
2023-01-08T17:07:14.297Z,87.59
2023-01-08T17:09:40.780Z,87.50
2023-01-08T17:12:07.318Z,87.28
2023-01-08T17:14:35.390Z,87.05
2023-01-08T17:17:02.188Z,87.13
2023-01-08T17:19:28.669Z,87.28
2023-01-08T17:21:55.086Z,87.21
2023-01-08T17:24:21.610Z,87.33
2023-01-08T17:26:48.085Z,86.99
2023-01-08T17:29:14.791Z,87.15
2023-01-08T17:31:41.354Z,87.12
2023-01-08T17:34:12.122Z,86.65
2023-01-08T17:36:38.665Z,86.86
2023-01-08T17:39:05.390Z,86.31
2023-01-08T17:41:50.225Z,86.92
2023-01-08T17:44:16.738Z,86.80
2023-01-08T17:46:45.115Z,87.11
2023-01-08T17:49:16.302Z,86.84
2023-01-08T17:51:44.175Z,87.13
2023-01-08T17:54:12.024Z,87.29
2023-01-08T17:56:38.733Z,87.56
2023-01-08T17:59:05.433Z,87.82
2023-01-08T18:01:32.273Z,87.85
2023-01-08T18:03:58.885Z,87.92
2023-01-08T18:06:25.370Z,88.16
2023-01-08T18:08:51.803Z,88.00
2023-01-08T18:11:18.368Z,88.62
2023-01-08T18:13:44.932Z,88.22
2023-01-08T18:16:13.324Z,88.50
2023-01-08T18:18:40.577Z,88.59
2023-01-08T18:21:07.887Z,88.41
2023-01-08T18:23:34.440Z,88.59
2023-01-08T18:26:06.023Z,88.72
2023-01-08T18:28:32.885Z,88.85
2023-01-08T18:30:59.936Z,89.20
2023-01-08T18:33:27.139Z,89.10
2023-01-08T18:35:53.640Z,89.35
2023-01-08T18:38:20.143Z,89.65
2023-01-08T18:40:47.429Z,89.80
2023-01-08T18:43:14.000Z,89.51
2023-01-08T18:45:41.336Z,89.36
2023-01-08T18:48:09.431Z,89.26
2023-01-08T18:50:40.290Z,89.30
2023-01-08T18:53:08.021Z,89.48
2023-01-08T18:55:34.644Z,89.34
2023-01-08T18:58:01.169Z,89.51
2023-01-08T19:00:27.764Z,89.42
2023-01-08T19:02:54.293Z,89.38
2023-01-08T19:05:21.951Z,89.50
2023-01-08T19:07:48.532Z,90.17
2023-01-08T19:10:17.392Z,89.70
2023-01-08T19:12:44.775Z,90.12
2023-01-08T19:15:12.153Z,90.04
2023-01-08T19:17:38.644Z,90.22
2023-01-08T19:20:05.688Z,90.27
2023-01-08T19:22:32.612Z,90.00
2023-01-08T19:24:59.214Z,90.40
2023-01-08T19:27:25.887Z,90.63
2023-01-08T19:29:52.287Z,90.55
2023-01-08T19:32:18.753Z,90.44
2023-01-08T19:34:45.199Z,90.57
2023-01-08T19:37:14.967Z,90.70
2023-01-08T19:39:41.729Z,90.91
2023-01-08T19:42:28.916Z,90.69
2023-01-08T19:44:56.082Z,90.73
2023-01-08T19:47:23.113Z,90.60
2023-01-08T19:49:49.745Z,90.59
2023-01-08T19:52:17.446Z,90.48
2023-01-08T19:54:44.451Z,90.67
2023-01-08T19:57:10.959Z,90.58
2023-01-08T19:59:37.797Z,90.25
2023-01-08T20:02:04.632Z,90.26
2023-01-08T20:04:32.015Z,90.10
2023-01-08T20:06:59.213Z,89.94
2023-01-08T20:09:25.624Z,90.13
2023-01-08T20:11:52.120Z,90.20
2023-01-08T20:14:20.821Z,90.52
2023-01-08T20:16:47.751Z,90.29
2023-01-08T20:19:14.268Z,90.39
2023-01-08T20:21:40.921Z,90.53
2023-01-08T20:24:12.675Z,90.48
2023-01-08T20:26:39.560Z,90.37
2023-01-08T20:29:06.097Z,90.30
2023-01-08T20:31:34.432Z,90.72
2023-01-08T20:34:04.298Z,90.80
2023-01-08T20:36:33.384Z,91.06
2023-01-08T20:39:03.287Z,90.93
2023-01-08T20:41:30.005Z,91.09
2023-01-08T20:43:56.539Z,91.18
2023-01-08T20:46:28.051Z,91.04
2023-01-08T20:48:56.576Z,91.14
2023-01-08T20:51:23.216Z,91.13
2023-01-08T20:53:49.771Z,90.89
2023-01-08T20:56:16.370Z,90.77
2023-01-08T20:58:48.406Z,90.86
2023-01-08T21:01:22.884Z,90.96
2023-01-08T21:03:51.207Z,90.85
2023-01-08T21:06:20.541Z,91.15
2023-01-08T21:08:50.653Z,91.03
2023-01-08T21:11:18.110Z,91.32
2023-01-08T21:13:44.901Z,91.55
2023-01-08T21:16:14.885Z,91.58
2023-01-08T21:18:46.912Z,91.74
2023-01-08T21:21:16.960Z,91.96
2023-01-08T21:23:46.916Z,92.12
2023-01-08T21:26:14.773Z,92.39
2023-01-08T21:28:41.783Z,92.56
2023-01-08T21:31:17.740Z,92.40
2023-01-08T21:33:47.758Z,92.65
2023-01-08T21:36:20.509Z,92.88
2023-01-08T21:38:47.560Z,92.94
2023-01-08T21:41:37.012Z,92.95
2023-01-08T21:44:25.316Z,93.14
2023-01-08T21:46:51.874Z,93.46
2023-01-08T21:49:18.399Z,93.66
2023-01-08T21:52:03.227Z,93.32
2023-01-08T21:54:29.742Z,93.54
2023-01-08T21:56:56.383Z,93.62
2023-01-08T21:59:25.677Z,94.13
2023-01-08T22:01:52.243Z,93.95
2023-01-08T22:04:18.692Z,94.44
2023-01-08T22:06:45.145Z,94.65
2023-01-08T22:09:11.558Z,94.72
2023-01-08T22:11:37.967Z,94.72
2023-01-08T22:14:04.496Z,94.79
2023-01-08T22:16:31.078Z,94.85
2023-01-08T22:18:57.857Z,94.75
2023-01-08T22:21:24.336Z,95.02
2023-01-08T22:23:51.015Z,95.18
2023-01-08T22:26:19.942Z,95.07
2023-01-08T22:28:46.407Z,95.79
2023-01-08T22:31:14.735Z,96.04
2023-01-08T22:33:41.574Z,96.55
2023-01-08T22:36:11.445Z,97.33
2023-01-08T22:38:39.289Z,98.75
2023-01-08T22:41:14.743Z,99.13
2023-01-08T22:43:41.202Z,100.00
2023-01-08T22:46:07.784Z,100.00
2023-01-08T22:48:35.619Z,100.00
2023-01-08T22:51:03.453Z,100.00
2023-01-08T22:53:30.071Z,100.00
2023-01-08T22:55:56.685Z,100.00
2023-01-08T22:58:23.157Z,100.00
2023-01-08T23:00:49.685Z,100.00
2023-01-08T23:03:16.247Z,100.00
2023-01-08T23:05:42.685Z,100.00
2023-01-08T23:08:09.791Z,100.00
2023-01-08T23:10:36.657Z,100.00
2023-01-08T23:13:06.553Z,100.00
2023-01-08T23:15:33.073Z,100.00
2023-01-08T23:17:59.738Z,100.00
2023-01-08T23:20:26.222Z,100.00
2023-01-08T23:22:54.311Z,100.00
2023-01-08T23:25:20.917Z,100.00
2023-01-08T23:27:47.455Z,100.00
2023-01-08T23:30:14.025Z,100.00
2023-01-08T23:32:40.515Z,100.00
2023-01-08T23:35:07.181Z,100.00
2023-01-08T23:37:34.399Z,100.00
2023-01-08T23:40:00.989Z,100.00
2023-01-08T23:42:29.284Z,100.00
2023-01-08T23:44:55.772Z,100.00
2023-01-08T23:47:22.247Z,100.00
2023-01-08T23:49:48.792Z,100.00
2023-01-08T23:52:15.282Z,100.00
2023-01-08T23:54:41.738Z,100.00
2023-01-08T23:57:08.204Z,100.00
2023-01-08T23:59:34.650Z,100.00
